createdAt,value
2023-03-18T00:00:21.987Z,75.67
2023-03-18T00:04:22.632Z,75.28
2023-03-18T00:08:24.117Z,74.87
2023-03-18T00:12:28.104Z,74.90
2023-03-18T00:16:28.766Z,75.70
2023-03-18T00:20:38.888Z,75.78
2023-03-18T00:24:39.949Z,76.84
2023-03-18T00:28:43.114Z,77.22
2023-03-18T00:32:44.296Z,77.66
2023-03-18T00:36:47.901Z,77.18
2023-03-18T00:40:53.685Z,76.69
2023-03-18T00:44:56.880Z,76.48
2023-03-18T00:49:00.562Z,76.90
2023-03-18T00:53:00.855Z,77.00
2023-03-18T00:57:01.858Z,76.80
2023-03-18T01:01:05.660Z,76.67
2023-03-18T01:05:07.328Z,77.01
2023-03-18T01:09:11.969Z,76.25
2023-03-18T01:13:13.554Z,76.75
2023-03-18T01:17:18.340Z,76.67
2023-03-18T01:21:23.183Z,76.69
2023-03-18T01:25:30.887Z,76.71
2023-03-18T01:29:31.797Z,76.26
2023-03-18T01:33:40.523Z,76.61
2023-03-18T01:37:42.234Z,77.15
2023-03-18T01:41:46.426Z,77.96
2023-03-18T01:45:54.488Z,78.53
2023-03-18T01:50:00.176Z,78.40
2023-03-18T01:54:07.563Z,77.86
2023-03-18T01:58:13.293Z,78.10
2023-03-18T02:02:18.638Z,78.23
2023-03-18T02:06:22.237Z,79.27
2023-03-18T02:10:33.775Z,78.94
2023-03-18T02:14:34.575Z,79.20
2023-03-18T02:18:43.779Z,78.69
2023-03-18T02:22:53.616Z,78.69
2023-03-18T02:27:01.656Z,78.92
2023-03-18T02:31:18.498Z,78.42
2023-03-18T02:35:20.755Z,77.79
2023-03-18T02:39:22.393Z,78.38
2023-03-18T02:43:30.391Z,78.52
2023-03-18T02:47:37.084Z,78.92
2023-03-18T02:51:39.725Z,78.09
2023-03-18T02:55:41.763Z,78.59
2023-03-18T02:59:43.744Z,78.21
2023-03-18T03:03:47.289Z,78.04
2023-03-18T03:07:47.586Z,77.75
2023-03-18T03:11:50.194Z,77.92
2023-03-18T03:15:56.082Z,78.47
2023-03-18T03:19:59.362Z,78.40
2023-03-18T03:24:00.407Z,77.76
2023-03-18T03:28:01.240Z,79.43
2023-03-18T03:32:02.292Z,79.76
2023-03-18T03:36:05.696Z,79.59
2023-03-18T03:40:08.368Z,79.52
2023-03-18T03:44:09.348Z,78.92
2023-03-18T03:48:14.206Z,78.42
2023-03-18T03:52:20.789Z,78.00
2023-03-18T03:56:26.182Z,79.17
2023-03-18T04:00:27.778Z,78.86
2023-03-18T04:04:28.377Z,78.40
2023-03-18T04:08:32.648Z,78.18
2023-03-18T04:12:33.555Z,78.13
2023-03-18T04:16:35.917Z,78.48
2023-03-18T04:20:38.168Z,78.58
2023-03-18T04:24:49.865Z,78.61
2023-03-18T04:28:50.394Z,79.01
2023-03-18T04:32:52.060Z,78.90
2023-03-18T04:36:52.875Z,78.72
2023-03-18T04:40:56.520Z,78.70
2023-03-18T04:44:58.005Z,78.75
2023-03-18T04:49:01.056Z,79.30
2023-03-18T04:53:01.904Z,79.13
2023-03-18T04:57:07.790Z,78.96
2023-03-18T05:01:13.999Z,78.54
2023-03-18T05:05:15.071Z,79.42
2023-03-18T05:09:21.693Z,79.17
2023-03-18T05:13:25.111Z,79.74
2023-03-18T05:17:26.867Z,79.78
2023-03-18T05:21:31.624Z,79.86
2023-03-18T05:25:34.298Z,79.46
2023-03-18T05:29:38.496Z,79.31
2023-03-18T05:33:45.218Z,78.89
2023-03-18T05:37:46.811Z,78.99
2023-03-18T05:41:48.086Z,79.10
2023-03-18T05:45:58.577Z,78.72
2023-03-18T05:50:16.681Z,78.39
2023-03-18T05:54:18.993Z,77.96
2023-03-18T05:58:19.645Z,77.29
2023-03-18T06:02:27.144Z,76.51
2023-03-18T06:06:27.966Z,76.56
2023-03-18T06:10:29.460Z,77.37
2023-03-18T06:14:31.564Z,77.58
2023-03-18T06:18:38.107Z,76.81
2023-03-18T06:22:38.964Z,75.11
2023-03-18T06:26:39.978Z,75.73
2023-03-18T06:30:40.785Z,74.09
2023-03-18T06:34:47.440Z,75.54
2023-03-18T06:38:48.451Z,73.06
2023-03-18T06:42:50.263Z,72.01
2023-03-18T06:47:22.171Z,71.27
2023-03-18T06:51:33.713Z,70.82
2023-03-18T06:55:35.132Z,70.39
2023-03-18T06:59:37.722Z,69.83
2023-03-18T07:03:39.188Z,68.78
2023-03-18T07:07:44.938Z,67.47
2023-03-18T07:11:46.190Z,66.32
2023-03-18T07:15:51.107Z,66.47
2023-03-18T07:19:52.040Z,65.35
2023-03-18T07:23:55.782Z,64.65
2023-03-18T07:27:59.759Z,64.46
2023-03-18T07:31:59.955Z,63.49
2023-03-18T07:36:00.594Z,61.70
2023-03-18T07:40:04.170Z,60.79
2023-03-18T07:44:05.154Z,59.18
2023-03-18T07:48:06.193Z,57.77
2023-03-18T07:52:07.001Z,56.24
2023-03-18T07:56:11.811Z,54.79
2023-03-18T08:00:16.110Z,54.55
2023-03-18T08:04:16.607Z,53.36
2023-03-18T08:08:17.107Z,52.25
2023-03-18T08:12:20.293Z,51.12
2023-03-18T08:16:21.033Z,51.10
2023-03-18T08:20:23.248Z,51.08
2023-03-18T08:24:24.686Z,49.25
2023-03-18T08:28:28.989Z,49.36
2023-03-18T08:32:29.475Z,49.03
2023-03-18T08:36:30.319Z,49.74
2023-03-18T08:40:31.165Z,49.91
2023-03-18T08:44:34.800Z,49.13
2023-03-18T08:48:38.445Z,48.68
2023-03-18T08:52:41.552Z,47.32
2023-03-18T08:56:43.723Z,46.89
2023-03-18T09:00:48.286Z,46.38
2023-03-18T09:04:50.537Z,45.66
2023-03-18T09:08:50.948Z,44.72
2023-03-18T09:12:52.570Z,45.03
2023-03-18T09:16:55.820Z,44.24
2023-03-18T09:20:56.748Z,43.53
2023-03-18T09:24:57.211Z,42.12
2023-03-18T09:28:57.706Z,42.41
2023-03-18T09:33:01.906Z,42.68
2023-03-18T09:37:02.543Z,41.22
2023-03-18T09:41:21.579Z,41.75
2023-03-18T09:45:31.662Z,41.03
2023-03-18T09:50:06.817Z,40.34
2023-03-18T09:54:16.034Z,40.47
2023-03-18T09:58:31.442Z,39.97
2023-03-18T10:02:41.051Z,38.66
2023-03-18T10:06:48.526Z,39.46
2023-03-18T10:10:52.149Z,40.49
2023-03-18T10:15:10.334Z,39.88
2023-03-18T10:19:12.928Z,38.82
2023-03-18T10:23:35.071Z,37.12
2023-03-18T10:27:50.355Z,36.85
2023-03-18T10:32:11.025Z,34.94
2023-03-18T10:36:20.738Z,34.46
2023-03-18T10:40:38.559Z,33.41
2023-03-18T10:44:45.939Z,33.77
2023-03-18T10:48:54.488Z,32.79
2023-03-18T10:53:07.210Z,32.68
2023-03-18T10:57:17.076Z,32.15
2023-03-18T11:01:23.370Z,29.81
2023-03-18T11:05:29.183Z,30.62
2023-03-18T11:09:36.470Z,30.21
2023-03-18T11:13:41.449Z,29.87
2023-03-18T11:17:43.503Z,28.91
2023-03-18T11:21:45.061Z,28.08
2023-03-18T11:25:49.637Z,27.81
2023-03-18T11:30:01.279Z,27.58
2023-03-18T11:34:03.322Z,26.60
2023-03-18T11:38:07.432Z,28.11
2023-03-18T11:42:22.341Z,27.63
2023-03-18T11:46:29.503Z,28.88
2023-03-18T11:50:42.463Z,27.18
2023-03-18T11:55:12.017Z,27.44
2023-03-18T11:59:39.993Z,26.07
2023-03-18T12:04:37.895Z,25.73
2023-03-18T12:08:57.123Z,26.97
2023-03-18T12:13:22.647Z,27.36
2023-03-18T12:17:41.159Z,28.66
2023-03-18T12:22:11.787Z,28.98
2023-03-18T12:26:21.225Z,29.92
2023-03-18T12:30:43.395Z,29.53
2023-03-18T12:35:09.316Z,29.29
2023-03-18T12:39:53.452Z,26.47
2023-03-18T12:44:11.902Z,25.26
2023-03-18T12:48:21.940Z,23.24
2023-03-18T12:52:35.996Z,22.74
2023-03-18T12:56:51.124Z,23.10
2023-03-18T13:00:59.960Z,22.99
2023-03-18T13:05:07.181Z,22.12
2023-03-18T13:09:22.018Z,22.77
2023-03-18T13:13:27.834Z,23.13
2023-03-18T13:17:36.830Z,22.41
2023-03-18T13:21:46.159Z,22.00
2023-03-18T13:26:07.144Z,22.50
2023-03-18T13:30:24.083Z,23.58
2023-03-18T13:34:57.720Z,24.89
2023-03-18T13:39:29.742Z,25.18
2023-03-18T13:43:32.842Z,24.36
2023-03-18T13:47:41.368Z,24.10
2023-03-18T13:51:56.418Z,23.80
2023-03-18T13:56:06.479Z,24.61
2023-03-18T14:00:33.402Z,26.77
2023-03-18T14:04:50.469Z,26.91
2023-03-18T14:08:54.120Z,25.23
2023-03-18T14:12:54.575Z,24.79
2023-03-18T14:16:56.431Z,23.89
2023-03-18T14:21:05.212Z,24.18
2023-03-18T14:25:37.929Z,24.28
2023-03-18T14:29:43.687Z,23.77
2023-03-18T14:34:01.851Z,24.54
2023-03-18T14:38:17.067Z,26.44
2023-03-18T14:42:32.256Z,27.11
2023-03-18T14:46:39.227Z,27.88
2023-03-18T14:50:45.426Z,27.89
2023-03-18T14:54:49.743Z,27.75
2023-03-18T14:58:53.445Z,27.24
2023-03-18T15:03:03.894Z,27.91
2023-03-18T15:07:11.257Z,28.45
2023-03-18T15:11:16.599Z,29.04
2023-03-18T15:15:19.893Z,29.25
2023-03-18T15:19:22.135Z,29.15
2023-03-18T15:23:32.292Z,29.32
2023-03-18T15:27:38.330Z,29.26
2023-03-18T15:31:46.254Z,28.79
2023-03-18T15:35:48.734Z,29.40
2023-03-18T15:39:48.805Z,30.16
2023-03-18T15:43:54.068Z,30.92
2023-03-18T15:47:54.406Z,31.16
2023-03-18T15:52:03.188Z,31.99
2023-03-18T15:56:19.860Z,32.01
2023-03-18T16:00:24.546Z,32.54
2023-03-18T16:04:25.727Z,33.47
2023-03-18T16:08:27.345Z,34.70
2023-03-18T16:12:32.520Z,34.49
2023-03-18T16:16:36.950Z,35.52
2023-03-18T16:20:38.077Z,36.11
2023-03-18T16:24:41.877Z,36.55
2023-03-18T16:28:43.920Z,37.00
2023-03-18T16:32:47.431Z,37.82
2023-03-18T16:36:50.885Z,38.31
2023-03-18T16:40:53.792Z,38.60
2023-03-18T16:44:55.028Z,39.03
2023-03-18T16:48:58.496Z,39.51
2023-03-18T16:52:58.832Z,39.57
2023-03-18T16:57:02.225Z,40.08
2023-03-18T17:01:04.992Z,41.66
2023-03-18T17:05:10.086Z,41.19
2023-03-18T17:09:10.318Z,41.59
2023-03-18T17:13:18.485Z,41.54
2023-03-18T17:17:28.235Z,42.33
2023-03-18T17:21:33.542Z,43.14
2023-03-18T17:25:34.668Z,43.51
2023-03-18T17:29:34.914Z,44.28
2023-03-18T17:33:37.912Z,44.49
2023-03-18T17:37:40.558Z,44.78
2023-03-18T17:41:40.784Z,45.89
2023-03-18T17:45:41.023Z,46.17
2023-03-18T17:49:41.884Z,46.55
2023-03-18T17:53:51.426Z,47.79
2023-03-18T17:57:52.181Z,47.75
2023-03-18T18:01:54.002Z,48.51
2023-03-18T18:05:55.366Z,49.05
2023-03-18T18:10:01.193Z,49.36
2023-03-18T18:14:13.467Z,49.28
2023-03-18T18:18:40.137Z,49.03
2023-03-18T18:23:00.144Z,49.50
2023-03-18T18:27:14.686Z,49.81
2023-03-18T18:31:17.666Z,50.05
2023-03-18T18:35:21.285Z,50.66
2023-03-18T18:39:21.900Z,50.63
2023-03-18T18:43:26.042Z,50.65
2023-03-18T18:47:26.101Z,51.27
2023-03-18T18:51:28.467Z,51.53
2023-03-18T18:55:41.237Z,51.86
2023-03-18T18:59:53.695Z,52.41
2023-03-18T19:04:00.233Z,52.82
2023-03-18T19:08:07.024Z,53.57
2023-03-18T19:12:23.831Z,55.07
2023-03-18T19:16:45.733Z,54.88
2023-03-18T19:20:52.954Z,55.37
2023-03-18T19:24:53.070Z,56.09
2023-03-18T19:28:59.356Z,55.59
2023-03-18T19:33:02.503Z,56.54
2023-03-18T19:37:06.040Z,56.93
2023-03-18T19:41:07.123Z,57.16
2023-03-18T19:45:11.793Z,57.87
2023-03-18T19:49:26.406Z,58.75
2023-03-18T19:53:30.369Z,59.90
2023-03-18T19:57:34.075Z,59.93
2023-03-18T20:01:34.253Z,60.00
2023-03-18T20:05:37.051Z,61.24
2023-03-18T20:09:37.328Z,61.87
2023-03-18T20:13:37.411Z,61.60
2023-03-18T20:17:41.624Z,62.35
2023-03-18T20:21:45.059Z,62.39
2023-03-18T20:25:48.330Z,62.37
2023-03-18T20:29:49.997Z,63.11
2023-03-18T20:33:50.894Z,64.03
2023-03-18T20:37:53.758Z,64.39
2023-03-18T20:41:53.968Z,64.92
2023-03-18T20:45:55.767Z,65.11
2023-03-18T20:49:55.857Z,64.52
2023-03-18T20:53:58.566Z,64.42
2023-03-18T20:57:58.866Z,65.03
2023-03-18T21:01:59.012Z,64.28
2023-03-18T21:06:03.572Z,63.94
2023-03-18T21:10:06.906Z,63.38
2023-03-18T21:14:07.250Z,64.27
2023-03-18T21:18:07.827Z,64.34
2023-03-18T21:22:08.163Z,64.41
2023-03-18T21:26:10.907Z,65.08
2023-03-18T21:30:13.891Z,64.78
2023-03-18T21:34:14.573Z,65.15
2023-03-18T21:38:14.677Z,66.06
2023-03-18T21:42:24.819Z,66.28
2023-03-18T21:46:29.853Z,66.26
2023-03-18T21:50:30.086Z,66.95
2023-03-18T21:54:30.653Z,67.25
2023-03-18T21:58:33.334Z,67.71
2023-03-18T22:02:36.651Z,67.56
2023-03-18T22:06:37.372Z,68.91
2023-03-18T22:10:37.829Z,69.35
2023-03-18T22:14:40.456Z,69.56
2023-03-18T22:18:40.554Z,70.20
2023-03-18T22:22:40.629Z,70.68
2023-03-18T22:26:40.682Z,71.88
2023-03-18T22:30:46.553Z,71.24
2023-03-18T22:34:46.633Z,71.84
2023-03-18T22:38:47.271Z,71.20
2023-03-18T22:42:48.904Z,71.40
2023-03-18T22:46:51.627Z,71.00
2023-03-18T22:50:53.688Z,70.97
2023-03-18T22:54:58.511Z,71.64
2023-03-18T22:58:58.611Z,71.94
2023-03-18T23:03:01.777Z,72.34
2023-03-18T23:07:01.980Z,72.49
2023-03-18T23:11:04.381Z,72.37
2023-03-18T23:15:05.735Z,73.08
2023-03-18T23:19:08.342Z,73.41
2023-03-18T23:23:08.511Z,74.32
2023-03-18T23:27:09.313Z,73.99
2023-03-18T23:31:09.700Z,74.26
2023-03-18T23:35:13.459Z,74.31
2023-03-18T23:39:13.622Z,74.03
2023-03-18T23:43:13.707Z,74.10
2023-03-18T23:47:15.983Z,73.99
2023-03-18T23:51:18.871Z,73.91
2023-03-18T23:55:33.601Z,73.46
2023-03-18T23:59:34.902Z,73.68
